createdAt,value
2018-08-19T00:00:52.055Z,20.50
2018-08-19T00:03:20.375Z,20.50
2018-08-19T00:05:49.094Z,20.40
2018-08-19T00:08:17.450Z,20.30
2018-08-19T00:10:59.720Z,20.30
2018-08-19T00:13:34.818Z,20.30
2018-08-19T00:16:03.584Z,20.30
2018-08-19T00:18:32.165Z,20.30
2018-08-19T00:21:01.296Z,20.20
2018-08-19T00:23:33.400Z,20.30
2018-08-19T00:26:01.706Z,20.20
2018-08-19T00:28:30.019Z,20.20
2018-08-19T00:30:58.809Z,20.30
2018-08-19T00:33:27.117Z,20.30
2018-08-19T00:35:55.471Z,20.40
2018-08-19T00:38:24.234Z,20.30
2018-08-19T00:40:52.494Z,20.30
2018-08-19T00:43:21.094Z,20.30
2018-08-19T00:45:49.771Z,20.20
2018-08-19T00:48:18.382Z,20.20
2018-08-19T00:50:46.624Z,20.20
2018-08-19T00:53:15.731Z,20.30
2018-08-19T00:55:49.881Z,20.30
2018-08-19T00:58:26.909Z,20.20
2018-08-19T01:00:55.453Z,20.10
2018-08-19T01:03:23.772Z,20.10
2018-08-19T01:05:52.428Z,20.00
2018-08-19T01:08:20.666Z,19.90
2018-08-19T01:10:48.957Z,19.90
2018-08-19T01:13:17.551Z,19.90
2018-08-19T01:15:53.144Z,19.90
2018-08-19T01:18:21.840Z,19.90
2018-08-19T01:21:03.155Z,19.90
2018-08-19T01:23:31.384Z,20.00
2018-08-19T01:25:59.652Z,19.90
2018-08-19T01:28:28.132Z,19.90
2018-08-19T01:30:56.441Z,19.90
2018-08-19T01:33:24.765Z,19.80
2018-08-19T01:35:53.096Z,19.70
2018-08-19T01:38:21.360Z,19.70
2018-08-19T01:40:49.644Z,19.80
2018-08-19T01:43:17.965Z,19.80
2018-08-19T01:45:46.770Z,19.80
2018-08-19T01:48:15.365Z,19.80
2018-08-19T01:50:43.629Z,19.80
2018-08-19T01:53:12.318Z,19.80
2018-08-19T01:55:40.622Z,19.80
2018-08-19T01:58:09.578Z,19.70
2018-08-19T02:00:37.902Z,19.70
2018-08-19T02:03:06.150Z,19.60
2018-08-19T02:05:35.113Z,19.60
2018-08-19T02:08:04.398Z,19.60
2018-08-19T02:10:33.766Z,19.60
2018-08-19T02:13:02.378Z,19.60
2018-08-19T02:15:31.857Z,19.60
2018-08-19T02:18:08.139Z,19.60
2018-08-19T02:20:38.518Z,19.60
2018-08-19T02:23:08.710Z,19.60
2018-08-19T02:25:41.887Z,19.60
2018-08-19T02:28:10.642Z,19.60
2018-08-19T02:31:02.039Z,19.50
2018-08-19T02:33:32.339Z,19.50
2018-08-19T02:36:05.222Z,19.50
2018-08-19T02:38:34.090Z,19.50
2018-08-19T02:41:02.366Z,19.50
2018-08-19T02:43:31.110Z,19.30
2018-08-19T02:45:59.407Z,19.30
2018-08-19T02:48:43.321Z,19.30
2018-08-19T02:51:13.490Z,19.40
2018-08-19T02:53:43.627Z,19.40
2018-08-19T02:56:12.886Z,19.30
2018-08-19T02:58:42.160Z,19.20
2018-08-19T03:01:10.956Z,19.20
2018-08-19T03:03:39.257Z,19.30
2018-08-19T03:06:07.918Z,19.30
2018-08-19T03:08:38.222Z,19.30
2018-08-19T03:11:06.841Z,19.20
2018-08-19T03:13:35.506Z,19.20
2018-08-19T03:16:04.250Z,19.10
2018-08-19T03:18:33.102Z,19.20
2018-08-19T03:21:01.746Z,19.10
2018-08-19T03:23:29.957Z,19.10
2018-08-19T03:25:59.206Z,19.10
2018-08-19T03:28:27.518Z,19.00
2018-08-19T03:31:01.230Z,19.10
2018-08-19T03:33:29.878Z,19.10
2018-08-19T03:35:58.222Z,18.90
2018-08-19T03:38:27.697Z,18.90
2018-08-19T03:40:56.956Z,18.90
2018-08-19T03:43:25.881Z,18.80
2018-08-19T03:45:54.469Z,18.80
2018-08-19T03:48:23.121Z,18.80
2018-08-19T03:50:51.389Z,18.80
2018-08-19T03:53:20.213Z,18.80
2018-08-19T03:55:48.490Z,18.90
2018-08-19T03:58:17.585Z,18.80
2018-08-19T04:00:45.982Z,18.90
2018-08-19T04:03:20.359Z,18.80
2018-08-19T04:05:53.428Z,18.80
2018-08-19T04:08:21.776Z,18.90
2018-08-19T04:10:50.226Z,18.90
2018-08-19T04:13:38.195Z,18.80
2018-08-19T04:16:08.401Z,18.80
2018-08-19T04:18:40.382Z,18.90
2018-08-19T04:21:11.307Z,18.90
2018-08-19T04:23:42.324Z,18.80
2018-08-19T04:26:10.756Z,18.80
2018-08-19T04:28:40.229Z,18.70
2018-08-19T04:31:14.111Z,18.70
2018-08-19T04:33:43.797Z,18.70
2018-08-19T04:36:13.599Z,18.70
2018-08-19T04:38:42.500Z,18.80
2018-08-19T04:41:11.207Z,18.90
2018-08-19T04:44:10.217Z,18.80
2018-08-19T04:46:38.494Z,18.80
2018-08-19T04:49:06.882Z,18.70
2018-08-19T04:51:35.225Z,18.70
2018-08-19T04:54:05.213Z,18.80
2018-08-19T04:56:34.173Z,18.80
2018-08-19T04:59:02.614Z,18.90
2018-08-19T05:01:30.833Z,19.00
2018-08-19T05:03:59.237Z,18.80
2018-08-19T05:06:28.107Z,18.90
2018-08-19T05:08:56.366Z,18.90
2018-08-19T05:11:24.662Z,18.90
2018-08-19T05:13:53.703Z,19.00
2018-08-19T05:16:22.189Z,18.90
2018-08-19T05:18:56.325Z,19.00
2018-08-19T05:21:25.705Z,19.00
2018-08-19T05:23:54.002Z,19.00
2018-08-19T05:26:22.281Z,19.10
2018-08-19T05:29:03.704Z,19.20
2018-08-19T05:31:31.998Z,19.30
2018-08-19T05:34:00.242Z,19.30
2018-08-19T05:36:32.925Z,19.40
2018-08-19T05:39:02.665Z,19.40
2018-08-19T05:41:30.968Z,19.50
2018-08-19T05:43:59.265Z,19.70
2018-08-19T05:46:27.543Z,19.80
2018-08-19T05:49:00.290Z,19.90
2018-08-19T05:51:28.791Z,20.00
2018-08-19T05:53:57.681Z,20.20
2018-08-19T05:56:26.694Z,20.40
2018-08-19T05:58:54.965Z,20.60
2018-08-19T06:01:28.704Z,20.80
2018-08-19T06:03:58.090Z,21.00
2018-08-19T06:06:26.871Z,21.20
2018-08-19T06:08:55.127Z,21.50
2018-08-19T06:11:23.389Z,21.80
2018-08-19T06:13:51.968Z,22.00
2018-08-19T06:16:20.715Z,22.20
2018-08-19T06:18:49.825Z,22.50
2018-08-19T06:21:18.582Z,22.70
2018-08-19T06:23:47.352Z,23.00
2018-08-19T06:26:17.448Z,23.20
2018-08-19T06:28:45.697Z,23.40
2018-08-19T06:31:14.028Z,23.60
2018-08-19T06:33:42.255Z,23.90
2018-08-19T06:36:10.515Z,24.10
2018-08-19T06:38:38.899Z,24.30
2018-08-19T06:41:07.218Z,24.40
2018-08-19T06:43:35.466Z,24.40
2018-08-19T06:46:03.789Z,24.70
2018-08-19T06:48:32.358Z,24.70
2018-08-19T06:51:00.772Z,24.60
2018-08-19T06:53:29.877Z,24.70
2018-08-19T06:55:58.774Z,25.00
2018-08-19T06:58:27.333Z,25.00
2018-08-19T07:00:58.141Z,25.00
2018-08-19T07:03:26.498Z,25.20
2018-08-19T07:06:08.012Z,25.20
2018-08-19T07:08:36.354Z,25.50
2018-08-19T07:11:05.507Z,25.70
2018-08-19T07:13:34.781Z,25.90
2018-08-19T07:16:03.033Z,26.10
2018-08-19T07:18:31.979Z,26.50
2018-08-19T07:21:00.723Z,26.70
2018-08-19T07:23:28.977Z,27.10
2018-08-19T07:25:57.290Z,27.60
2018-08-19T07:28:25.566Z,28.10
2018-08-19T07:30:53.823Z,28.40
2018-08-19T07:33:22.177Z,28.90
2018-08-19T07:35:50.449Z,29.50
2018-08-19T07:38:18.728Z,30.00
2018-08-19T07:40:47.002Z,30.00
2018-08-19T07:43:15.305Z,30.30
2018-08-19T07:45:43.782Z,30.10
2018-08-19T07:48:12.088Z,30.90
2018-08-19T07:50:40.785Z,31.70
2018-08-19T07:53:09.603Z,32.80
2018-08-19T07:55:38.416Z,33.30
2018-08-19T07:58:06.862Z,33.20
2018-08-19T08:00:39.552Z,33.70
2018-08-19T08:03:07.862Z,34.00
2018-08-19T08:05:50.916Z,33.00
2018-08-19T08:08:19.174Z,33.80
2018-08-19T08:10:47.430Z,33.30
2018-08-19T08:13:15.770Z,32.60
2018-08-19T08:15:49.415Z,32.90
2018-08-19T08:18:18.236Z,33.30
2018-08-19T08:20:58.866Z,34.10
2018-08-19T08:23:28.935Z,34.40
2018-08-19T08:25:57.198Z,34.70
2018-08-19T08:28:25.453Z,35.70
2018-08-19T08:30:53.806Z,36.60
2018-08-19T08:33:22.122Z,36.00
2018-08-19T08:35:55.957Z,36.20
2018-08-19T08:38:24.254Z,36.70
2018-08-19T08:40:52.850Z,37.00
2018-08-19T08:43:21.846Z,36.60
2018-08-19T08:45:50.122Z,36.60
2018-08-19T08:48:18.968Z,36.60
2018-08-19T08:50:47.526Z,35.90
2018-08-19T08:53:16.671Z,34.70
2018-08-19T08:55:45.257Z,34.90
2018-08-19T08:58:13.836Z,35.60
2018-08-19T09:00:42.098Z,36.40
2018-08-19T09:03:10.595Z,36.80
2018-08-19T09:05:39.382Z,36.90
2018-08-19T09:08:07.698Z,37.20
2018-08-19T09:10:36.054Z,36.40
2018-08-19T09:13:04.717Z,35.40
2018-08-19T09:15:33.445Z,37.00
2018-08-19T09:20:36.490Z,38.20
2018-08-19T09:23:05.301Z,38.40
2018-08-19T09:25:33.510Z,39.20
2018-08-19T09:28:01.783Z,39.00
2018-08-19T09:30:36.729Z,38.60
2018-08-19T09:33:05.329Z,38.60
2018-08-19T09:35:34.854Z,38.80
2018-08-19T09:38:10.430Z,39.00
2018-08-19T09:40:38.802Z,39.00
2018-08-19T09:43:07.873Z,38.60
2018-08-19T09:45:37.038Z,37.80
2018-08-19T09:48:06.060Z,37.40
2018-08-19T09:50:35.474Z,37.90
2018-08-19T09:53:04.727Z,38.10
2018-08-19T09:55:38.514Z,37.20
2018-08-19T09:58:22.370Z,36.90
2018-08-19T10:01:03.452Z,35.50
2018-08-19T10:03:31.810Z,34.60
2018-08-19T10:06:00.335Z,35.30
2018-08-19T10:08:28.590Z,35.50
2018-08-19T10:11:03.669Z,35.20
2018-08-19T10:13:35.305Z,36.00
2018-08-19T10:18:26.301Z,36.90
2018-08-19T10:20:55.227Z,37.40
2018-08-19T10:23:23.683Z,37.40
2018-08-19T10:25:52.476Z,39.10
2018-08-19T10:28:20.957Z,39.90
2018-08-19T10:30:55.462Z,39.40
2018-08-19T10:33:23.738Z,39.00
2018-08-19T10:35:52.251Z,39.60
2018-08-19T10:38:20.501Z,39.40
2018-08-19T10:40:57.698Z,39.40
2018-08-19T10:43:28.641Z,39.90
2018-08-19T10:45:56.975Z,40.50
2018-08-19T10:48:25.306Z,40.60
2018-08-19T10:50:53.569Z,41.10
2018-08-19T10:53:27.217Z,41.00
2018-08-19T10:56:00.405Z,40.60
2018-08-19T10:58:29.409Z,40.40
2018-08-19T11:00:59.876Z,41.00
2018-08-19T11:03:28.449Z,39.90
2018-08-19T11:05:57.184Z,40.70
2018-08-19T11:08:25.461Z,41.40
2018-08-19T11:10:53.728Z,41.00
2018-08-19T11:13:23.389Z,40.20
2018-08-19T11:15:58.183Z,40.30
2018-08-19T11:18:38.766Z,41.20
2018-08-19T11:21:11.371Z,41.60
2018-08-19T11:23:41.297Z,41.50
2018-08-19T11:26:09.989Z,41.10
2018-08-19T11:28:41.337Z,41.40
2018-08-19T11:31:16.569Z,41.70
2018-08-19T11:33:45.439Z,40.60
2018-08-19T11:36:13.708Z,40.70
2018-08-19T11:38:42.638Z,41.50
2018-08-19T11:41:11.956Z,42.40
2018-08-19T11:43:42.666Z,43.10
2018-08-19T11:46:11.256Z,43.10
2018-08-19T11:48:40.235Z,43.10
2018-08-19T11:51:08.482Z,41.70
2018-08-19T11:53:38.485Z,41.30
2018-08-19T11:56:07.267Z,41.50
2018-08-19T11:58:39.626Z,41.90
2018-08-19T12:01:09.125Z,40.40
2018-08-19T12:03:54.158Z,40.40
2018-08-19T12:06:24.957Z,40.10
2018-08-19T12:08:54.570Z,39.30
2018-08-19T12:11:26.269Z,38.20
2018-08-19T12:13:55.318Z,38.40
2018-08-19T12:16:25.748Z,38.80
2018-08-19T12:18:54.688Z,38.80
2018-08-19T12:21:24.087Z,38.40
2018-08-19T12:24:06.603Z,37.10
2018-08-19T12:26:39.386Z,37.40
2018-08-19T12:29:07.662Z,37.80
2018-08-19T12:31:36.010Z,37.70
2018-08-19T12:34:04.355Z,37.30
2018-08-19T12:36:32.612Z,36.90
2018-08-19T12:39:00.902Z,36.80
2018-08-19T12:41:29.328Z,36.60
2018-08-19T12:44:03.818Z,36.10
2018-08-19T12:46:32.095Z,36.40
2018-08-19T12:49:00.350Z,36.10
2018-08-19T12:51:28.724Z,36.30
2018-08-19T12:53:57.545Z,36.40
2018-08-19T12:56:25.868Z,36.80
2018-08-19T12:58:54.850Z,36.90
2018-08-19T13:01:23.162Z,36.80
2018-08-19T13:03:51.866Z,37.50
2018-08-19T13:06:20.522Z,37.60
2018-08-19T13:08:48.790Z,37.80
2018-08-19T13:11:17.094Z,38.10
2018-08-19T13:13:46.092Z,37.40
2018-08-19T13:16:15.055Z,37.30
2018-08-19T13:18:44.425Z,37.10
2018-08-19T13:21:18.576Z,37.10
2018-08-19T13:23:46.918Z,36.90
2018-08-19T13:26:15.413Z,36.80
2018-08-19T13:28:48.916Z,36.70
2018-08-19T13:31:22.275Z,36.90
2018-08-19T13:33:51.131Z,36.80
2018-08-19T13:36:19.489Z,36.20
2018-08-19T13:38:47.779Z,34.90
2018-08-19T13:41:16.077Z,34.80
2018-08-19T13:43:44.331Z,34.70
2018-08-19T13:46:12.649Z,34.70
2018-08-19T13:48:40.922Z,34.40
2018-08-19T13:51:09.221Z,34.40
2018-08-19T13:53:38.042Z,33.90
2018-08-19T13:56:06.529Z,33.60
2018-08-19T13:58:34.850Z,33.30
2018-08-19T14:01:03.168Z,33.00
2018-08-19T14:03:31.449Z,32.80
2018-08-19T14:06:00.354Z,32.80
2018-08-19T14:08:28.602Z,32.80
2018-08-19T14:10:57.107Z,32.20
2018-08-19T14:15:59.320Z,32.00
2018-08-19T14:18:28.097Z,32.00
2018-08-19T14:20:56.902Z,31.80
2018-08-19T14:23:25.714Z,32.00
2018-08-19T14:25:54.264Z,32.10
2018-08-19T14:28:22.786Z,31.90
2018-08-19T14:30:51.136Z,31.80
2018-08-19T14:33:19.361Z,31.70
2018-08-19T14:35:47.762Z,31.60
2018-08-19T14:38:16.134Z,31.50
2018-08-19T14:40:44.589Z,31.50
2018-08-19T14:43:12.950Z,31.30
2018-08-19T14:45:41.398Z,31.10
2018-08-19T14:48:12.223Z,31.10
2018-08-19T14:50:42.761Z,31.00
2018-08-19T14:53:11.655Z,30.80
2018-08-19T14:55:39.954Z,30.80
2018-08-19T14:58:08.305Z,30.80
2018-08-19T15:00:36.620Z,30.50
2018-08-19T15:03:04.925Z,30.60
2018-08-19T15:05:33.542Z,30.70
2018-08-19T15:08:08.081Z,30.70
2018-08-19T15:10:36.351Z,30.60
2018-08-19T15:13:05.062Z,30.60
2018-08-19T15:15:33.810Z,30.60
2018-08-19T15:18:13.265Z,30.60
2018-08-19T15:20:41.530Z,30.70
2018-08-19T15:23:17.078Z,30.60
2018-08-19T15:25:45.423Z,30.60
2018-08-19T15:28:14.004Z,30.60
2018-08-19T15:30:42.769Z,30.50
2018-08-19T15:33:12.043Z,30.60
2018-08-19T15:35:40.934Z,30.50
2018-08-19T15:38:09.210Z,30.30
2018-08-19T15:40:42.686Z,30.00
2018-08-19T15:43:11.960Z,30.00
2018-08-19T15:45:40.715Z,30.10
2018-08-19T15:48:09.115Z,30.10
2018-08-19T15:50:37.944Z,30.00
2018-08-19T15:53:08.574Z,30.10
2018-08-19T15:55:37.217Z,30.00
2018-08-19T15:58:06.123Z,30.00
2018-08-19T16:00:37.019Z,29.80
2018-08-19T16:03:05.698Z,29.90
2018-08-19T16:05:34.292Z,30.00
2018-08-19T16:08:04.142Z,30.00
2018-08-19T16:10:32.477Z,30.00
2018-08-19T16:13:04.641Z,30.00
2018-08-19T16:15:33.626Z,30.00
2018-08-19T16:20:36.578Z,29.70
2018-08-19T16:23:04.893Z,29.80
2018-08-19T16:25:33.187Z,29.80
2018-08-19T16:28:01.665Z,29.80
2018-08-19T16:30:30.108Z,29.80
2018-08-19T16:32:58.585Z,29.70
2018-08-19T16:35:27.374Z,29.70
2018-08-19T16:37:55.867Z,29.70
2018-08-19T16:40:24.164Z,29.70
2018-08-19T16:42:52.450Z,29.60
2018-08-19T16:45:21.080Z,29.40
2018-08-19T16:47:49.346Z,29.40
2018-08-19T16:50:21.860Z,29.40
2018-08-19T16:52:50.485Z,29.30
2018-08-19T16:55:18.745Z,29.30
2018-08-19T16:57:47.010Z,29.20
2018-08-19T17:00:15.672Z,29.20
2018-08-19T17:02:44.011Z,29.10
2018-08-19T17:05:26.290Z,29.00
2018-08-19T17:07:54.606Z,28.90
2018-08-19T17:10:22.854Z,28.90
2018-08-19T17:12:51.154Z,28.80
2018-08-19T17:15:19.770Z,28.80
2018-08-19T17:17:48.066Z,28.70
2018-08-19T17:20:16.646Z,28.60
2018-08-19T17:22:44.981Z,28.60
2018-08-19T17:25:13.477Z,28.60
2018-08-19T17:27:41.762Z,28.50
2018-08-19T17:30:14.641Z,28.40
2018-08-19T17:32:43.275Z,28.30
2018-08-19T17:35:12.980Z,28.30
2018-08-19T17:37:41.795Z,28.30
2018-08-19T17:40:10.510Z,28.20
2018-08-19T17:42:38.750Z,28.20
2018-08-19T17:45:07.433Z,28.20
2018-08-19T17:47:35.732Z,28.10
2018-08-19T17:50:04.595Z,28.00
2018-08-19T17:52:32.862Z,28.00
2018-08-19T17:55:01.322Z,28.00
2018-08-19T17:57:29.593Z,27.90
2018-08-19T17:59:58.347Z,27.80
2018-08-19T18:02:26.554Z,27.70
2018-08-19T18:04:55.346Z,27.60
2018-08-19T18:07:26.446Z,27.60
2018-08-19T18:09:56.334Z,27.60
2018-08-19T18:12:24.724Z,27.60
2018-08-19T18:14:53.439Z,27.50
2018-08-19T18:17:21.717Z,27.40
2018-08-19T18:19:50.451Z,27.30
2018-08-19T18:22:19.353Z,27.30
2018-08-19T18:24:52.310Z,27.30
2018-08-19T18:27:20.637Z,27.30
2018-08-19T18:29:49.189Z,27.30
2018-08-19T18:32:17.463Z,27.20
2018-08-19T18:34:45.723Z,27.20
2018-08-19T18:37:14.654Z,27.10
2018-08-19T18:39:44.084Z,27.10
2018-08-19T18:42:19.430Z,27.10
2018-08-19T18:44:48.515Z,27.10
2018-08-19T18:47:16.881Z,27.10
2018-08-19T18:49:49.106Z,27.00
2018-08-19T18:52:18.246Z,26.90
2018-08-19T18:54:46.805Z,26.90
2018-08-19T18:57:15.083Z,26.80
2018-08-19T18:59:50.141Z,26.80
2018-08-19T19:02:18.417Z,26.80
2018-08-19T19:04:46.954Z,26.80
2018-08-19T19:07:15.229Z,26.70
2018-08-19T19:09:49.981Z,26.60
2018-08-19T19:12:22.241Z,26.50
2018-08-19T19:14:50.945Z,26.40
2018-08-19T19:17:19.295Z,26.40
2018-08-19T19:19:48.705Z,26.30
2018-08-19T19:22:16.973Z,26.30
2018-08-19T19:24:45.512Z,26.20
2018-08-19T19:27:13.794Z,26.20
2018-08-19T19:29:43.588Z,26.20
2018-08-19T19:32:19.321Z,26.10
2018-08-19T19:34:48.065Z,26.10
2018-08-19T19:37:16.314Z,26.00
2018-08-19T19:39:44.584Z,25.90
2018-08-19T19:42:13.203Z,25.80
2018-08-19T19:44:41.471Z,25.80
2018-08-19T19:47:10.237Z,25.70
2018-08-19T19:49:54.759Z,25.60
2018-08-19T19:52:23.115Z,25.60
2018-08-19T19:54:51.618Z,25.50
2018-08-19T19:57:19.869Z,25.50
2018-08-19T19:59:51.590Z,25.50
2018-08-19T20:02:27.933Z,25.30
2018-08-19T20:04:56.919Z,25.40
2018-08-19T20:07:30.586Z,25.30
2018-08-19T20:09:58.822Z,25.30
2018-08-19T20:12:29.020Z,25.30
2018-08-19T20:14:59.613Z,25.30
2018-08-19T20:17:27.965Z,25.20
2018-08-19T20:19:57.145Z,25.10
2018-08-19T20:22:25.420Z,25.00
2018-08-19T20:24:53.701Z,25.00
2018-08-19T20:27:22.042Z,25.00
2018-08-19T20:29:51.384Z,24.90
2018-08-19T20:32:19.747Z,24.90
2018-08-19T20:34:48.601Z,24.90
2018-08-19T20:37:19.661Z,24.90
2018-08-19T20:39:48.014Z,24.90
2018-08-19T20:42:16.359Z,24.70
2018-08-19T20:44:44.606Z,24.70
2018-08-19T20:47:12.998Z,24.70
2018-08-19T20:49:50.771Z,24.60
2018-08-19T20:52:24.850Z,24.60
2018-08-19T20:54:53.692Z,24.50
2018-08-19T20:57:22.522Z,24.50
2018-08-19T20:59:51.522Z,24.50
2018-08-19T21:02:20.169Z,24.30
2018-08-19T21:04:49.061Z,24.30
2018-08-19T21:07:17.337Z,24.30
2018-08-19T21:09:45.617Z,24.20
2018-08-19T21:12:13.872Z,24.20
2018-08-19T21:14:42.415Z,24.30
2018-08-19T21:17:11.071Z,24.20
2018-08-19T21:19:39.668Z,24.20
2018-08-19T21:22:07.969Z,24.10
2018-08-19T21:24:36.267Z,24.10
2018-08-19T21:27:04.618Z,24.10
2018-08-19T21:29:33.022Z,24.10
2018-08-19T21:32:01.369Z,24.10
2018-08-19T21:34:30.110Z,24.00
2018-08-19T21:36:59.149Z,24.00
2018-08-19T21:39:27.429Z,24.00
2018-08-19T21:41:56.061Z,23.90
2018-08-19T21:44:24.487Z,23.90
2018-08-19T21:46:53.189Z,23.90
2018-08-19T21:49:21.447Z,23.90
2018-08-19T21:51:50.091Z,23.90
2018-08-19T21:54:18.735Z,23.90
2018-08-19T21:56:46.966Z,23.80
2018-08-19T21:59:20.968Z,23.80
2018-08-19T22:01:53.213Z,23.80
2018-08-19T22:04:26.687Z,23.80
2018-08-19T22:06:54.914Z,23.70
2018-08-19T22:09:32.196Z,23.70
2018-08-19T22:12:01.076Z,23.70
2018-08-19T22:14:30.187Z,23.70
2018-08-19T22:17:11.013Z,23.60
2018-08-19T22:19:40.323Z,23.60
2018-08-19T22:22:09.034Z,23.60
2018-08-19T22:24:37.386Z,23.50
2018-08-19T22:27:13.866Z,23.40
2018-08-19T22:29:42.168Z,23.40
2018-08-19T22:32:10.421Z,23.40
2018-08-19T22:34:48.310Z,23.40
2018-08-19T22:37:17.092Z,23.40
2018-08-19T22:42:08.544Z,23.30
2018-08-19T22:44:36.810Z,23.30
2018-08-19T22:47:05.120Z,23.20
2018-08-19T22:49:33.482Z,23.20
2018-08-19T22:52:11.758Z,23.00
2018-08-19T22:54:40.753Z,23.00
2018-08-19T22:57:09.024Z,23.00
2018-08-19T22:59:37.603Z,23.00
2018-08-19T23:02:06.450Z,22.90
2018-08-19T23:04:35.013Z,22.90
2018-08-19T23:07:03.395Z,22.80
2018-08-19T23:09:31.781Z,22.70
2018-08-19T23:12:00.098Z,22.80
2018-08-19T23:14:39.745Z,22.70
2018-08-19T23:17:08.673Z,22.60
2018-08-19T23:19:37.223Z,22.60
2018-08-19T23:22:05.533Z,22.60
2018-08-19T23:24:33.970Z,22.70
2018-08-19T23:27:02.309Z,22.70
2018-08-19T23:29:30.582Z,22.60
2018-08-19T23:31:58.981Z,22.40
2018-08-19T23:34:27.282Z,22.40
2018-08-19T23:36:55.566Z,22.40
2018-08-19T23:39:24.272Z,22.40
2018-08-19T23:41:52.581Z,22.30
2018-08-19T23:44:20.879Z,22.30
2018-08-19T23:46:49.200Z,22.30
2018-08-19T23:49:17.463Z,22.30
2018-08-19T23:51:46.150Z,22.30
2018-08-19T23:54:14.954Z,22.20
2018-08-19T23:56:43.781Z,22.20
2018-08-19T23:59:12.086Z,22.20
